Time;durP1;ratioP1;P1;durP2;ratioP2;P2;SDS_P1;SDS_P2;PMS_P1;PMS_P2;Temp;Humidity;BMP_temperature;BMP_pressure;BME280_temperature;BME280_humidity;BME280_pressure;Samples;Min_cycle;Max_cycle;Signal;HPM_P1;HPM_P2
2022/04/27 00:00:36;;;;;;;5.57;2.00;;;20.10;49.00;;;;;;4355102;32;20497;-70
2022/04/27 00:03:04;;;;;;;5.45;1.55;;;20.10;49.00;;;;;;4328946;32;20163;-70
2022/04/27 00:05:31;;;;;;;8.18;1.90;;;20.00;48.90;;;;;;4355167;32;20422;-70
2022/04/27 00:07:57;;;;;;;5.07;1.55;;;20.00;48.90;;;;;;4341844;32;20103;-70
2022/04/27 00:10:23;;;;;;;5.57;1.67;;;20.00;49.00;;;;;;4354906;32;20080;-70
2022/04/27 00:12:49;;;;;;;5.93;1.60;;;20.00;49.00;;;;;;4355153;32;20509;-70
2022/04/27 00:15:15;;;;;;;5.88;1.83;;;20.00;49.00;;;;;;4354542;32;20098;-70
2022/04/27 00:17:42;;;;;;;5.97;1.38;;;20.00;49.00;;;;;;4355012;32;20116;-70
2022/04/27 00:20:09;;;;;;;5.90;1.65;;;19.90;49.00;;;;;;4341786;32;20106;-70
2022/04/27 00:22:36;;;;;;;4.50;1.60;;;19.90;49.00;;;;;;4354734;32;20842;-71
2022/04/27 00:25:04;;;;;;;4.32;1.55;;;19.90;49.00;;;;;;4354709;32;20092;-70
2022/04/27 00:27:30;;;;;;;11.48;2.55;;;19.90;49.00;;;;;;4354959;32;20068;-70
2022/04/27 00:29:58;;;;;;;3.50;1.55;;;19.90;49.10;;;;;;4355194;32;20094;-71
2022/04/27 00:32:24;;;;;;;3.47;1.50;;;19.90;49.00;;;;;;4354326;32;20087;-70
2022/04/27 00:34:50;;;;;;;5.45;1.65;;;19.90;49.10;;;;;;4354182;32;20084;-71
2022/04/27 00:37:17;;;;;;;3.55;1.15;;;19.90;49.10;;;;;;4341160;32;20091;-70
2022/04/27 00:39:43;;;;;;;4.45;1.60;;;19.90;49.10;;;;;;4354798;32;20575;-70
2022/04/27 00:42:26;;;;;;;6.68;1.73;;;19.80;49.10;;;;;;4354711;32;20609;-70
2022/04/27 00:44:52;;;;;;;3.90;1.40;;;19.80;49.10;;;;;;4354581;32;20099;-71
2022/04/27 00:47:19;;;;;;;4.20;1.40;;;19.80;49.10;;;;;;4354440;32;20086;-70
2022/04/27 00:49:49;;;;;;;2.75;1.20;;;19.80;49.10;;;;;;4354025;32;20099;-70
2022/04/27 00:52:16;;;;;;;6.55;1.70;;;19.80;49.10;;;;;;4341344;32;20116;-70
2022/04/27 00:54:44;;;;;;;4.65;1.60;;;19.80;49.10;;;;;;4354237;32;20103;-70
2022/04/27 00:57:10;;;;;;;3.95;1.55;;;19.80;49.20;;;;;;4354080;32;20076;-70
2022/04/27 00:59:37;;;;;;;3.40;1.27;;;19.80;49.20;;;;;;4341188;32;20535;-70
2022/04/27 01:02:04;;;;;;;2.97;1.10;;;19.80;49.20;;;;;;4346625;32;20142;-70
2022/04/27 01:04:32;;;;;;;4.32;1.50;;;19.80;49.20;;;;;;4338800;33;20085;-70
2022/04/27 01:06:59;;;;;;;7.07;1.50;;;19.80;49.20;;;;;;4325869;33;20154;-70
2022/04/27 01:09:25;;;;;;;2.67;1.05;;;19.80;50.20;;;;;;4339087;33;20081;-70
2022/04/27 01:11:52;;;;;;;4.07;1.38;;;19.80;49.20;;;;;;4314210;33;20190;-71
2022/04/27 01:14:18;;;;;;;2.45;1.33;;;19.70;49.20;;;;;;4339240;33;20222;-70
2022/04/27 01:16:51;;;;;;;2.65;1.20;;;19.70;49.20;;;;;;4326080;33;20072;-70
2022/04/27 01:19:18;;;;;;;4.13;1.33;;;19.70;49.20;;;;;;4339328;33;20517;-70
2022/04/27 01:21:44;;;;;;;5.82;1.48;;;19.70;49.20;;;;;;4339264;33;20234;-70
2022/04/27 01:24:11;;;;;;;6.55;1.65;;;19.70;49.20;;;;;;4339454;33;20570;-70
2022/04/27 01:26:40;;;;;;;3.65;1.38;;;19.70;49.20;;;;;;4326025;33;20163;-71
2022/04/27 01:29:05;;;;;;;3.78;1.40;;;19.70;49.30;;;;;;4339260;33;20164;-71
2022/04/27 01:31:31;;;;;;;4.32;1.33;;;19.70;49.30;;;;;;4339123;33;20108;-71
2022/04/27 01:33:57;;;;;;;5.57;1.40;;;19.70;49.30;;;;;;4338730;33;20073;-71
2022/04/27 01:36:23;;;;;;;3.88;1.50;;;19.70;49.30;;;;;;4339424;33;20076;-70
2022/04/27 01:38:49;;;;;;;4.45;1.50;;;19.60;49.20;;;;;;4326037;33;20068;-70
2022/04/27 01:41:15;;;;;;;3.65;1.20;;;19.60;49.20;;;;;;4325790;33;20069;-70
2022/04/27 01:43:41;;;;;;;2.60;0.90;;;19.60;49.20;;;;;;4325836;33;20454;-70
2022/04/27 01:46:07;;;;;;;4.00;1.40;;;19.60;50.10;;;;;;4338843;33;20415;-70
2022/04/27 01:48:33;;;;;;;3.13;1.10;;;19.60;49.20;;;;;;4339085;33;20132;-70
2022/04/27 01:50:59;;;;;;;2.95;1.25;;;19.60;49.20;;;;;;4339101;33;20614;-70
2022/04/27 01:56:09;;;;;;;2.88;1.30;;;19.60;49.20;;;;;;4339367;33;20084;-70
2022/04/27 01:58:35;;;;;;;3.42;1.40;;;19.60;49.20;;;;;;4339273;33;20087;-71
2022/04/27 02:01:01;;;;;;;3.78;1.27;;;19.60;49.30;;;;;;4339213;33;20423;-70
2022/04/27 02:03:27;;;;;;;4.95;1.05;;;19.60;49.30;;;;;;4338545;33;20072;-70
2022/04/27 02:05:53;;;;;;;2.97;1.02;;;19.60;49.30;;;;;;4338801;33;20068;-70
2022/04/27 02:08:19;;;;;;;2.25;1.00;;;19.50;49.20;;;;;;4339151;33;20164;-70
2022/04/27 02:10:45;;;;;;;4.68;1.23;;;19.50;49.20;;;;;;4346620;33;20171;-70
2022/04/27 02:13:11;;;;;;;5.03;1.63;;;19.50;49.30;;;;;;4352728;33;20190;-70
2022/04/27 02:15:38;;;;;;;1.90;0.80;;;19.50;49.30;;;;;;4352720;33;20207;-70
2022/04/27 02:18:05;;;;;;;3.45;1.20;;;19.50;49.30;;;;;;4352651;33;20079;-70
2022/04/27 02:20:32;;;;;;;3.33;1.30;;;19.50;49.30;;;;;;4353647;32;20576;-70
2022/04/27 02:22:58;;;;;;;3.50;1.33;;;19.50;49.30;;;;;;4355508;32;20550;-70
2022/04/27 02:25:24;;;;;;;2.63;1.00;;;19.50;49.30;;;;;;4353970;32;20072;-70
2022/04/27 02:27:50;;;;;;;2.40;1.02;;;19.50;49.30;;;;;;4354177;32;20079;-70
2022/04/27 02:30:18;;;;;;;3.53;1.13;;;19.50;49.30;;;;;;4354162;32;20442;-70
2022/04/27 02:32:45;;;;;;;1.73;0.80;;;19.50;49.30;;;;;;4354214;32;20060;-70
2022/04/27 02:35:12;;;;;;;3.17;1.00;;;19.50;49.40;;;;;;4341605;32;20164;-70
2022/04/27 02:37:39;;;;;;;2.88;1.05;;;19.40;49.30;;;;;;4353830;32;20104;-70
2022/04/27 02:40:06;;;;;;;2.10;1.00;;;19.40;49.30;;;;;;4354298;32;20402;-70
2022/04/27 02:42:32;;;;;;;2.92;1.00;;;19.50;49.40;;;;;;4355215;32;20142;-70
2022/04/27 02:44:58;;;;;;;3.25;1.25;;;19.40;49.30;;;;;;4355262;32;20076;-70
2022/04/27 02:47:24;;;;;;;2.58;0.98;;;19.40;49.40;;;;;;4355119;32;20434;-70
2022/04/27 02:52:35;;;;;;;1.98;0.90;;;19.40;49.40;;;;;;4355192;32;20084;-70
2022/04/27 02:55:01;;;;;;;3.97;1.05;;;19.40;49.40;;;;;;4355057;32;20060;-70
2022/04/27 02:57:27;;;;;;;3.03;0.90;;;19.40;49.40;;;;;;4354902;32;20127;-70
2022/04/27 02:59:53;;;;;;;2.28;0.77;;;19.40;49.40;;;;;;4353999;32;20222;-70
2022/04/27 03:02:19;;;;;;;3.42;1.10;;;19.40;49.40;;;;;;4354154;32;20088;-70
2022/04/27 03:04:45;;;;;;;1.70;0.70;;;19.40;49.40;;;;;;4354178;32;20091;-70
2022/04/27 03:07:11;;;;;;;2.83;0.88;;;19.40;49.40;;;;;;4352688;32;20072;-70
2022/04/27 03:09:37;;;;;;;1.95;0.95;;;19.40;49.50;;;;;;4353599;32;20112;-70
2022/04/27 03:12:03;;;;;;;2.17;0.85;;;19.40;49.50;;;;;;4339120;32;20176;-70
2022/04/27 03:14:31;;;;;;;1.50;0.80;;;19.40;49.50;;;;;;4340212;32;20220;-70
2022/04/27 03:16:57;;;;;;;2.25;1.02;;;19.40;49.50;;;;;;4340284;33;20069;-70
2022/04/27 03:19:24;;;;;;;2.17;1.00;;;19.30;49.40;;;;;;4340097;33;20152;-69
2022/04/27 03:21:51;;;;;;;1.65;0.75;;;19.30;49.40;;;;;;4340287;33;20078;-70
2022/04/27 03:24:17;;;;;;;1.85;0.80;;;19.30;49.40;;;;;;4326749;33;20232;-70
2022/04/27 03:26:42;;;;;;;1.77;0.88;;;19.30;49.50;;;;;;4340196;33;20096;-70
2022/04/27 03:29:08;;;;;;;2.33;0.77;;;19.30;49.50;;;;;;4340119;33;20135;-70
2022/04/27 03:31:34;;;;;;;1.45;0.80;;;19.30;49.50;;;;;;4339870;33;20072;-70
2022/04/27 03:34:00;;;;;;;1.60;0.65;;;19.30;49.40;;;;;;4339707;33;20079;-70
2022/04/27 03:36:26;;;;;;;1.75;0.95;;;19.30;49.50;;;;;;4326575;33;20076;-70
2022/04/27 03:38:52;;;;;;;3.20;0.80;;;19.30;49.50;;;;;;4348234;32;20577;-70
2022/04/27 03:41:20;;;;;;;2.40;0.98;;;19.30;49.50;;;;;;4353975;32;20437;-70
2022/04/27 03:43:50;;;;;;;2.65;0.80;;;19.30;49.60;;;;;;4354184;32;20191;-70
2022/04/27 03:46:16;;;;;;;2.25;0.93;;;19.30;49.50;;;;;;4353711;32;20158;-69
2022/04/27 03:48:42;;;;;;;1.60;0.80;;;19.30;49.60;;;;;;4353844;32;20149;-71
2022/04/27 03:51:09;;;;;;;1.33;0.70;;;19.20;49.50;;;;;;4353794;32;20095;-70
2022/04/27 03:53:35;;;;;;;2.28;0.85;;;19.30;49.60;;;;;;4353491;32;20151;-69
2022/04/27 03:56:01;;;;;;;2.15;0.82;;;19.20;49.50;;;;;;4340215;32;20068;-70
2022/04/27 03:58:27;;;;;;;2.55;0.75;;;19.20;49.60;;;;;;4353560;32;20083;-70
2022/04/27 04:00:52;;;;;;;1.83;0.70;;;19.20;49.60;;;;;;4353524;32;20108;-70
2022/04/27 04:03:18;;;;;;;1.35;0.60;;;19.20;49.60;;;;;;4353122;32;20100;-70
2022/04/27 04:05:44;;;;;;;1.73;0.82;;;19.20;49.60;;;;;;4353400;32;20495;-70
2022/04/27 04:08:10;;;;;;;3.25;0.95;;;19.20;49.60;;;;;;4353357;32;20068;-70
2022/04/27 04:10:37;;;;;;;1.15;0.63;;;19.20;49.70;;;;;;4351346;32;20398;-70
2022/04/27 04:13:02;;;;;;;2.97;0.82;;;19.20;49.70;;;;;;4353420;32;20176;-70
2022/04/27 04:15:29;;;;;;;1.25;0.70;;;19.20;49.70;;;;;;4353226;32;20084;-70
2022/04/27 04:17:56;;;;;;;1.40;0.80;;;19.20;49.70;;;;;;4353306;32;20507;-70
2022/04/27 04:20:22;;;;;;;1.40;0.70;;;19.20;49.70;;;;;;4353727;32;20146;-70
2022/04/27 04:22:49;;;;;;;1.25;0.60;;;19.20;49.70;;;;;;4354852;32;20223;-70
2022/04/27 04:30:45;;;;;;;1.38;0.70;;;19.10;50.60;;;;;;4354829;32;20100;-70
2022/04/27 04:33:11;;;;;;;1.02;0.75;;;19.20;49.70;;;;;;4354338;32;20076;-70
2022/04/27 04:35:37;;;;;;;1.30;0.70;;;19.20;49.70;;;;;;4341438;32;20076;-70
2022/04/27 04:38:06;;;;;;;3.38;0.82;;;19.10;49.70;;;;;;4340994;32;20092;-70
2022/04/27 04:40:33;;;;;;;1.67;0.98;;;19.10;49.70;;;;;;4354719;32;20246;-70
2022/04/27 04:42:59;;;;;;;2.45;0.80;;;19.10;49.70;;;;;;4354528;32;20529;-70
2022/04/27 04:45:25;;;;;;;2.10;0.65;;;19.10;49.80;;;;;;4355208;32;20167;-70
2022/04/27 04:47:51;;;;;;;1.33;0.63;;;19.10;49.70;;;;;;4354470;32;20080;-70
2022/04/27 04:50:17;;;;;;;1.80;0.73;;;19.10;49.70;;;;;;4328955;32;20119;-70
2022/04/27 04:52:43;;;;;;;0.85;0.40;;;19.10;49.70;;;;;;4354394;32;20108;-70
2022/04/27 04:55:09;;;;;;;1.08;0.50;;;19.10;49.70;;;;;;4354310;32;20079;-70
2022/04/27 04:57:35;;;;;;;2.17;0.60;;;19.10;49.70;;;;;;4354319;32;20411;-70
2022/04/27 05:00:02;;;;;;;1.60;0.68;;;19.10;49.70;;;;;;4354292;32;20073;-70
2022/04/27 05:02:33;;;;;;;2.72;0.70;;;19.10;49.70;;;;;;4354266;32;20080;-70
2022/04/27 05:05:02;;;;;;;1.23;0.68;;;19.10;49.70;;;;;;4353971;32;20499;-70
2022/04/27 05:07:30;;;;;;;1.60;0.75;;;19.10;49.80;;;;;;4354186;32;20099;-70
2022/04/27 05:09:56;;;;;;;1.10;0.55;;;19.10;49.70;;;;;;4354139;32;20080;-70
2022/04/27 05:12:25;;;;;;;1.73;0.60;;;19.10;49.80;;;;;;4354231;32;20131;-70
2022/04/27 05:14:52;;;;;;;1.52;0.70;;;19.10;49.80;;;;;;4353856;32;20137;-70
2022/04/27 05:17:18;;;;;;;1.90;0.70;;;19.10;49.80;;;;;;4354363;32;20095;-70
2022/04/27 05:19:44;;;;;;;2.35;0.57;;;19.10;49.80;;;;;;4340836;32;20076;-70
2022/04/27 05:22:09;;;;;;;1.90;0.77;;;19.00;49.80;;;;;;4354192;32;20090;-70
2022/04/27 05:24:36;;;;;;;1.77;0.70;;;19.10;49.80;;;;;;4353844;32;20084;-70
2022/04/27 05:27:02;;;;;;;1.83;0.77;;;19.10;49.80;;;;;;4340939;32;20122;-70
2022/04/27 05:32:13;;;;;;;1.10;0.60;;;19.00;49.80;;;;;;4353750;32;20127;-70
2022/04/27 05:34:38;;;;;;;1.42;0.55;;;19.00;49.70;;;;;;4353953;32;20100;-70
2022/04/27 05:37:05;;;;;;;1.52;0.70;;;19.00;49.80;;;;;;4354012;32;20210;-70
2022/04/27 05:39:31;;;;;;;0.90;0.50;;;19.00;49.80;;;;;;4353970;33;20076;-70
2022/04/27 05:41:57;;;;;;;1.67;0.88;;;19.00;49.80;;;;;;4354235;33;20100;-70
2022/04/27 05:44:24;;;;;;;0.68;0.50;;;19.00;49.80;;;;;;4353936;33;20092;-70
2022/04/27 05:46:51;;;;;;;1.27;0.50;;;19.00;49.80;;;;;;4328586;33;20171;-70
2022/04/27 05:49:17;;;;;;;1.17;0.50;;;19.00;49.80;;;;;;4354209;33;20090;-70
2022/04/27 05:51:43;;;;;;;1.95;0.85;;;19.00;49.80;;;;;;4353904;33;20115;-70
2022/04/27 05:54:09;;;;;;;1.38;0.80;;;19.00;49.80;;;;;;4354545;32;20079;-70
2022/04/27 05:56:36;;;;;;;1.10;0.50;;;19.00;49.80;;;;;;4357243;32;20499;-70
2022/04/27 05:59:02;;;;;;;0.98;0.55;;;19.00;49.80;;;;;;4343509;32;20174;-70
2022/04/27 06:01:29;;;;;;;1.00;0.65;;;19.00;49.80;;;;;;4356810;32;20506;-70
2022/04/27 06:03:55;;;;;;;1.25;0.60;;;19.00;49.90;;;;;;4356507;32;20537;-70
2022/04/27 06:06:21;;;;;;;1.35;0.70;;;18.90;49.80;;;;;;4343349;32;20172;-70
2022/04/27 06:08:47;;;;;;;1.13;0.63;;;19.00;49.80;;;;;;4356463;32;20229;-70
2022/04/27 06:11:13;;;;;;;2.25;0.60;;;18.90;49.80;;;;;;4356959;32;20076;-70
2022/04/27 06:13:39;;;;;;;4.55;0.77;;;18.90;49.80;;;;;;4342980;32;20286;-70
2022/04/27 06:16:05;;;;;;;1.15;0.50;;;19.00;49.80;;;;;;4343034;32;20064;-70
2022/04/27 06:18:31;;;;;;;1.48;0.60;;;18.90;49.80;;;;;;4356357;32;20139;-70
2022/04/27 06:20:58;;;;;;;1.60;0.55;;;18.90;49.90;;;;;;4343394;32;20094;-70
2022/04/27 06:23:23;;;;;;;1.27;0.47;;;18.90;49.90;;;;;;4356738;32;20092;-70
2022/04/27 06:25:50;;;;;;;2.85;0.60;;;18.90;49.90;;;;;;4343383;32;20080;-70
2022/04/27 06:28:16;;;;;;;1.30;0.55;;;18.90;49.90;;;;;;4356435;32;20075;-71
2022/04/27 06:30:42;;;;;;;1.67;0.63;;;18.90;49.90;;;;;;4356431;32;20261;-70
2022/04/27 06:33:08;;;;;;;1.13;0.45;;;18.90;49.90;;;;;;4356195;32;20159;-68
2022/04/27 06:35:34;;;;;;;0.98;0.55;;;18.90;49.90;;;;;;4343000;32;20084;-70
2022/04/27 06:38:00;;;;;;;0.77;0.40;;;18.90;49.90;;;;;;4343276;32;20119;-70
2022/04/27 06:40:26;;;;;;;1.58;0.60;;;18.90;49.90;;;;;;4356031;32;20084;-71
2022/04/27 06:42:53;;;;;;;2.67;0.82;;;18.90;49.90;;;;;;4356005;32;20124;-70
2022/04/27 06:45:19;;;;;;;0.82;0.60;;;18.90;49.90;;;;;;4356431;32;20060;-70
2022/04/27 06:47:45;;;;;;;0.85;0.47;;;18.90;49.90;;;;;;4356336;32;20566;-70
2022/04/27 06:50:14;;;;;;;1.38;0.52;;;18.90;49.90;;;;;;4356175;32;20091;-71
2022/04/27 06:52:46;;;;;;;1.05;0.40;;;18.90;49.90;;;;;;4356071;32;20079;-71
2022/04/27 06:55:12;;;;;;;1.50;0.60;;;18.90;49.90;;;;;;4356803;32;20098;-72
2022/04/27 06:57:38;;;;;;;2.22;0.70;;;18.90;49.90;;;;;;4356282;32;20108;-70
2022/04/27 07:00:05;;;;;;;0.90;0.55;;;18.90;49.90;;;;;;4355959;32;20391;-70
2022/04/27 07:02:32;;;;;;;1.38;0.75;;;18.80;49.90;;;;;;4356230;32;20072;-69
2022/04/27 07:05:01;;;;;;;1.17;0.50;;;18.80;49.80;;;;;;4355975;32;20507;-69
2022/04/27 07:07:30;;;;;;;2.67;0.90;;;18.80;49.30;;;;;;4355698;32;20088;-69
2022/04/27 07:09:56;;;;;;;2.33;0.88;;;18.80;49.00;;;;;;4356120;32;20099;-70
2022/04/27 07:12:23;;;;;;;2.35;0.80;;;18.80;48.80;;;;;;4355797;32;20269;-70
2022/04/27 07:14:48;;;;;;;4.00;0.95;;;18.80;48.60;;;;;;4355504;32;20083;-70
2022/04/27 07:17:15;;;;;;;3.80;1.20;;;18.80;48.60;;;;;;4342219;32;20112;-69
2022/04/27 07:19:41;;;;;;;5.55;1.00;;;18.70;48.50;;;;;;4355476;32;20090;-69
2022/04/27 07:22:07;;;;;;;1.85;0.88;;;18.80;48.80;;;;;;4355429;32;20081;-70
2022/04/27 07:24:33;;;;;;;2.20;0.65;;;18.80;49.00;;;;;;4355384;32;20131;-69
2022/04/27 07:27:00;;;;;;;2.85;0.95;;;18.70;49.00;;;;;;4355697;32;20400;-69
2022/04/27 07:29:26;;;;;;;3.10;0.98;;;18.80;49.20;;;;;;4355561;32;20215;-69
2022/04/27 07:31:52;;;;;;;2.55;0.80;;;18.80;49.30;;;;;;4355880;32;20099;-69
2022/04/27 07:34:18;;;;;;;1.85;0.63;;;18.70;49.30;;;;;;4355353;32;20057;-69
2022/04/27 07:36:44;;;;;;;2.22;0.70;;;18.70;49.40;;;;;;4355750;32;20056;-69
2022/04/27 07:39:10;;;;;;;1.42;0.60;;;18.70;49.50;;;;;;4355522;32;20191;-69
2022/04/27 07:41:36;;;;;;;2.40;0.82;;;18.70;49.60;;;;;;4355419;32;20076;-69
2022/04/27 07:44:02;;;;;;;2.42;0.70;;;18.70;49.60;;;;;;4355177;32;20106;-69
2022/04/27 07:46:28;;;;;;;2.88;0.95;;;18.70;49.70;;;;;;4342248;32;20403;-69
2022/04/27 07:48:55;;;;;;;1.65;0.65;;;18.70;49.80;;;;;;4355589;32;20091;-70
2022/04/27 07:51:21;;;;;;;1.35;0.70;;;18.70;49.80;;;;;;4355332;32;20230;-68
2022/04/27 07:53:47;;;;;;;4.15;0.88;;;18.70;49.90;;;;;;4355192;32;20075;-69
2022/04/27 07:56:13;;;;;;;2.70;0.60;;;18.70;49.90;;;;;;4355560;32;20111;-70
2022/04/27 07:58:39;;;;;;;2.65;0.80;;;18.70;49.90;;;;;;4341572;32;20092;-69
2022/04/27 08:01:05;;;;;;;3.63;0.85;;;18.70;49.90;;;;;;4355084;32;20140;-69
2022/04/27 08:03:31;;;;;;;2.08;0.70;;;18.70;49.90;;;;;;4354968;32;20592;-69
2022/04/27 08:05:57;;;;;;;2.88;0.88;;;18.70;50.00;;;;;;4354992;32;20147;-69
2022/04/27 08:08:23;;;;;;;1.75;0.70;;;18.70;50.00;;;;;;4354717;32;20100;-69
2022/04/27 08:10:49;;;;;;;1.30;0.70;;;18.70;50.00;;;;;;4355285;32;20068;-68
2022/04/27 08:13:15;;;;;;;2.65;0.98;;;18.70;50.00;;;;;;4355006;32;20164;-69
2022/04/27 08:15:42;;;;;;;1.63;0.60;;;18.70;50.00;;;;;;4354645;32;20123;-68
2022/04/27 08:18:08;;;;;;;3.65;0.82;;;18.70;50.10;;;;;;4349805;32;20550;-70
2022/04/27 08:23:29;;;;;;;2.50;0.70;;;18.70;50.20;;;;;;4353279;32;20091;-70
2022/04/27 08:25:57;;;;;;;7.13;1.48;;;18.70;50.10;;;;;;4354128;32;20076;-71
2022/04/27 08:28:26;;;;;;;3.55;1.05;;;18.70;49.90;;;;;;4354523;32;20601;-70
2022/04/27 08:30:53;;;;;;;5.63;1.20;;;18.70;49.70;;;;;;4354622;32;20115;-70
2022/04/27 08:33:20;;;;;;;2.88;1.10;;;18.70;49.40;;;;;;4354314;32;20590;-66
2022/04/27 08:35:48;;;;;;;6.72;1.10;;;18.70;49.30;;;;;;4341827;32;20392;-68
2022/04/27 08:38:22;;;;;;;5.82;1.00;;;18.70;49.40;;;;;;4590430;31;20127;-61
2022/04/27 08:40:49;;;;;;;4.45;1.20;;;18.70;49.40;;;;;;4576951;31;20087;-61
2022/04/27 08:43:15;;;;;;;5.03;1.30;;;18.70;49.40;;;;;;4576417;31;20133;-61
2022/04/27 08:45:44;;;;;;;4.18;1.20;;;18.70;49.40;;;;;;4577374;31;20107;-60
2022/04/27 08:48:11;;;;;;;4.93;1.30;;;18.70;49.50;;;;;;4575848;31;20223;-63
2022/04/27 08:50:38;;;;;;;6.13;1.20;;;18.70;49.70;;;;;;4577605;31;20131;-61
2022/04/27 08:53:05;;;;;;;5.85;1.27;;;18.70;49.80;;;;;;4575118;31;20130;-61
2022/04/27 08:55:31;;;;;;;5.43;1.40;;;18.70;49.90;;;;;;4576998;31;20269;-61
2022/04/27 08:58:08;;;;;;;7.53;1.60;;;18.70;49.90;;;;;;4576398;31;20163;-61
2022/04/27 09:00:35;;;;;;;6.18;1.60;;;18.70;49.80;;;;;;4561286;31;20130;-62
2022/04/27 09:03:34;;;;;;;5.60;1.70;;;18.70;49.70;;;;;;4577344;31;20138;-61
2022/04/27 09:06:09;;;;;;;4.60;1.63;;;18.70;49.70;;;;;;4575777;31;20149;-63
2022/04/27 09:08:52;;;;;;;5.22;1.30;;;18.70;50.70;;;;;;4576803;31;20123;-62
2022/04/27 09:11:26;;;;;;;4.40;1.35;;;18.70;49.80;;;;;;4577047;31;20095;-62
2022/04/27 09:13:58;;;;;;;8.43;1.35;;;18.70;49.90;;;;;;4574232;31;20139;-62
2022/04/27 09:22:07;;;;;;;3.83;1.23;;;18.70;50.10;;;;;;4559138;31;20219;-62
2022/04/27 09:24:51;;;;;;;6.93;1.25;;;18.70;50.20;;;;;;4560692;31;20560;-62
2022/04/27 09:27:22;;;;;;;5.97;1.50;;;18.70;50.30;;;;;;4558556;31;20127;-62
2022/04/27 09:30:25;;;;;;;5.15;1.17;;;18.80;50.40;;;;;;4555523;31;20250;-61
2022/04/27 09:32:51;;;;;;;4.85;1.13;;;18.70;50.60;;;;;;4549409;31;20651;-61
2022/04/27 09:35:34;;;;;;;5.25;1.33;;;18.70;50.60;;;;;;4557898;31;20135;-61
2022/04/27 09:38:13;;;;;;;4.90;1.15;;;18.70;50.60;;;;;;4559683;31;20679;-61
2022/04/27 09:40:56;;;;;;;6.22;1.42;;;18.70;50.60;;;;;;4558607;31;20219;-62
2022/04/27 09:43:43;;;;;;;;;;;18.80;50.80;;;;;;4558544;31;20127;-62
2022/04/27 09:46:22;;;;;;;7.32;1.35;;;18.80;50.80;;;;;;4545268;31;20142;-62
2022/04/27 09:49:09;;;;;;;3.42;1.20;;;18.70;50.70;;;;;;4551600;31;20131;-61
2022/04/27 09:51:36;;;;;;;5.57;1.48;;;18.80;50.90;;;;;;4548713;31;20718;-61
2022/04/27 09:54:03;;;;;;;5.20;1.60;;;18.80;50.90;;;;;;4535033;31;20095;-61
2022/04/27 09:56:38;;;;;;;7.22;1.55;;;18.80;51.00;;;;;;4546378;31;20127;-61
2022/04/27 09:59:07;;;;;;;5.07;1.40;;;18.80;51.00;;;;;;4548894;31;20127;-60
2022/04/27 10:01:36;;;;;;;4.55;1.40;;;18.80;50.90;;;;;;4546488;31;20127;-62
2022/04/27 10:04:06;;;;;;;8.38;1.67;;;18.80;50.80;;;;;;4548026;31;20150;-62
2022/04/27 10:06:34;;;;;;;3.70;1.20;;;18.80;50.70;;;;;;4547519;31;20139;-61
2022/04/27 10:09:02;;;;;;;6.10;1.80;;;18.80;50.50;;;;;;4546562;31;20136;-61
2022/04/27 10:11:29;;;;;;;9.00;1.70;;;18.80;50.30;;;;;;4547780;31;20191;-61
2022/04/27 10:13:55;;;;;;;6.53;1.85;;;18.80;50.20;;;;;;4546140;31;20141;-61
2022/04/27 10:16:26;;;;;;;8.55;1.60;;;18.80;50.00;;;;;;4547956;31;20143;-62
2022/04/27 10:18:52;;;;;;;5.75;1.50;;;18.90;50.00;;;;;;4546383;31;20163;-61
2022/04/27 10:22:01;;;;;;;5.80;1.67;;;18.90;49.90;;;;;;4546196;31;20180;-62
2022/04/27 10:24:34;;;;;;;8.88;1.77;;;18.90;49.70;;;;;;4548225;31;20203;-61
2022/04/27 10:27:21;;;;;;;4.85;1.63;;;18.90;49.80;;;;;;4546949;31;20136;-62
2022/04/27 10:30:02;;;;;;;4.78;1.52;;;18.90;49.70;;;;;;4548474;31;20139;-61
2022/04/27 10:32:41;;;;;;;5.38;1.52;;;18.90;49.70;;;;;;4547746;31;20084;-60
2022/04/27 10:35:19;;;;;;;5.35;1.50;;;18.90;49.60;;;;;;4546111;31;20146;-61
2022/04/27 10:37:58;;;;;;;4.38;1.58;;;18.90;49.60;;;;;;4518902;31;20142;-60
2022/04/27 10:40:47;;;;;;;10.00;1.98;;;18.90;49.50;;;;;;4514580;31;20131;-61
2022/04/27 10:43:27;;;;;;;6.25;1.60;;;18.90;49.50;;;;;;4514405;31;20150;-61
2022/04/27 10:45:54;;;;;;;4.28;1.30;;;18.90;49.50;;;;;;4516006;31;20136;-61
2022/04/27 10:48:27;;;;;;;3.03;1.30;;;18.90;49.50;;;;;;4514599;31;20135;-63
2022/04/27 10:50:54;;;;;;;4.93;1.40;;;18.90;49.40;;;;;;4515798;31;20121;-61
2022/04/27 10:53:25;;;;;;;4.43;1.50;;;18.90;49.40;;;;;;4514757;31;20297;-61
2022/04/27 10:55:54;;;;;;;7.10;1.92;;;18.90;49.40;;;;;;4513273;31;20193;-61
2022/04/27 10:58:31;;;;;;;5.28;1.35;;;18.90;49.30;;;;;;4515761;31;20222;-60
2022/04/27 11:01:02;;;;;;;4.55;1.42;;;18.90;49.20;;;;;;4512375;31;20139;-61
2022/04/27 11:03:36;;;;;;;5.38;1.58;;;18.90;49.00;;;;;;4513600;31;20297;-61
2022/04/27 11:06:05;;;;;;;7.20;1.75;;;18.90;48.80;;;;;;4514143;31;20124;-60
2022/04/27 11:08:53;;;;;;;5.88;1.33;;;18.90;48.60;;;;;;4515006;31;20132;-61
2022/04/27 11:11:24;;;;;;;7.72;1.85;;;18.90;48.30;;;;;;4515885;31;20210;-61
2022/04/27 11:13:51;;;;;;;5.15;1.50;;;18.90;48.10;;;;;;4514446;31;20209;-61
2022/04/27 11:16:18;;;;;;;10.45;2.15;;;18.90;48.70;;;;;;4515981;31;20144;-60
2022/04/27 11:18:57;;;;;;;4.00;1.40;;;18.90;47.70;;;;;;4514440;31;20155;-60
2022/04/27 11:21:25;;;;;;;4.72;1.40;;;18.90;47.50;;;;;;4515710;31;20258;-61
2022/04/27 11:23:53;;;;;;;4.40;1.42;;;18.90;47.40;;;;;;4515737;31;20495;-61
2022/04/27 11:26:19;;;;;;;6.22;1.27;;;18.90;47.20;;;;;;4514129;31;20124;-61
2022/04/27 11:28:46;;;;;;;5.57;1.25;;;18.90;47.10;;;;;;4516047;31;20143;-61
2022/04/27 11:31:13;;;;;;;4.72;1.52;;;18.90;47.00;;;;;;4514207;31;20229;-61
2022/04/27 11:33:40;;;;;;;5.90;1.80;;;18.90;46.70;;;;;;4515590;31;20128;-61
2022/04/27 11:36:07;;;;;;;6.18;1.40;;;18.90;46.70;;;;;;4516484;31;20123;-60
2022/04/27 11:38:37;;;;;;;8.75;1.98;;;18.90;46.70;;;;;;4547146;31;20495;-61
2022/04/27 11:41:12;;;;;;;7.00;1.50;;;18.90;46.50;;;;;;4547811;31;20080;-61
2022/04/27 11:43:39;;;;;;;6.05;1.80;;;18.90;46.30;;;;;;4545969;31;20247;-61
2022/04/27 11:46:08;;;;;;;5.00;1.60;;;18.90;46.00;;;;;;4547793;31;20254;-61
2022/04/27 11:48:34;;;;;;;5.63;1.50;;;18.90;45.90;;;;;;4545840;31;20127;-61
2022/04/27 11:51:01;;;;;;;5.65;1.80;;;18.90;46.00;;;;;;4547672;31;20127;-61
2022/04/27 11:53:28;;;;;;;10.88;1.90;;;18.90;45.90;;;;;;4545856;31;20087;-60
2022/04/27 11:55:55;;;;;;;7.47;1.85;;;18.90;45.60;;;;;;4545994;31;20124;-62
2022/04/27 11:58:29;;;;;;;8.90;1.83;;;18.90;45.70;;;;;;4546878;31;20144;-64
2022/04/27 12:01:00;;;;;;;8.20;1.70;;;18.90;45.20;;;;;;4545659;31;20128;-63
2022/04/27 12:03:27;;;;;;;9.05;2.00;;;18.90;45.30;;;;;;4547501;31;20258;-64
2022/04/27 12:05:54;;;;;;;5.65;1.73;;;18.90;45.20;;;;;;4545692;31;20224;-62
2022/04/27 12:08:22;;;;;;;8.35;1.65;;;18.90;45.20;;;;;;4546856;31;20135;-59
2022/04/27 12:10:51;;;;;;;10.60;2.20;;;18.90;45.20;;;;;;4544558;31;20084;-60
2022/04/27 12:13:19;;;;;;;9.95;2.08;;;18.90;45.20;;;;;;4545982;31;20170;-61
2022/04/27 12:15:49;;;;;;;6.70;1.80;;;18.80;44.90;;;;;;4547335;31;20150;-60
2022/04/27 12:18:16;;;;;;;7.90;1.40;;;18.90;44.80;;;;;;4545447;31;20145;-60
2022/04/27 12:20:44;;;;;;;6.55;1.88;;;18.80;44.60;;;;;;4547503;31;20188;-60
2022/04/27 12:23:11;;;;;;;5.60;1.60;;;18.80;44.40;;;;;;4545894;31;20147;-60
2022/04/27 12:25:59;;;;;;;6.75;1.90;;;18.90;44.50;;;;;;4546722;31;20132;-59
2022/04/27 12:28:34;;;;;;;8.65;1.70;;;18.90;44.40;;;;;;4547300;31;20102;-60
2022/04/27 12:31:05;;;;;;;9.77;1.88;;;18.80;44.00;;;;;;4545551;31;20131;-60
2022/04/27 12:33:43;;;;;;;6.90;1.80;;;18.80;43.90;;;;;;4547188;31;20135;-60
2022/04/27 12:39:06;;;;;;;7.82;1.80;;;18.90;43.90;;;;;;4513793;31;20161;-60
2022/04/27 12:41:41;;;;;;;5.32;1.65;;;18.80;43.70;;;;;;4515133;31;20142;-60
2022/04/27 12:44:35;;;;;;;5.30;1.50;;;18.80;43.60;;;;;;4513482;31;20139;-60
2022/04/27 12:47:01;;;;;;;;;;;18.80;43.40;;;;;;4515496;31;20183;-60
2022/04/27 12:49:44;;;;;;;7.65;1.30;;;18.80;43.30;;;;;;4514542;31;20154;-60
2022/04/27 12:52:30;;;;;;;7.53;1.77;;;18.80;43.50;;;;;;4513224;31;20124;-60
2022/04/27 12:55:16;;;;;;;6.82;1.60;;;18.80;43.40;;;;;;4515119;31;20259;-59
2022/04/27 12:57:49;;;;;;;4.70;1.38;;;18.80;43.30;;;;;;4514050;31;20554;-60
2022/04/27 13:00:17;;;;;;;7.05;2.25;;;18.80;43.30;;;;;;4514010;31;20127;-60
2022/04/27 13:02:44;;;;;;;10.32;1.80;;;18.80;43.20;;;;;;4514717;31;20100;-60
2022/04/27 13:05:10;;;;;;;5.28;1.52;;;18.80;43.20;;;;;;4513023;31;20197;-60
2022/04/27 13:07:37;;;;;;;4.45;1.58;;;18.80;43.10;;;;;;4514800;31;20116;-60
2022/04/27 13:12:49;;;;;;;5.13;1.42;;;18.80;42.90;;;;;;4513561;31;20144;-59
2022/04/27 13:15:15;;;;;;;5.15;1.52;;;18.80;43.00;;;;;;4514527;31;20111;-59
2022/04/27 13:17:45;;;;;;;8.85;1.98;;;18.80;42.90;;;;;;4512045;31;20245;-59
2022/04/27 13:20:11;;;;;;;5.72;1.58;;;18.80;42.90;;;;;;4514860;31;20572;-59
2022/04/27 13:22:37;;;;;;;9.98;1.90;;;18.80;42.70;;;;;;4512944;31;20116;-60